Buoy 41936

sailwx.info

Track history (hours):
 
Tides and Currents Weather Stations Pressure Air Temp Water Temp Dewpoint Dewpoint Depression Visibility Wind Speed Wind Dir Waves Ship Positions

Drifting buoy 41936

Last reported at 2015-May-28 14:00 UTC. Time now 2015-May-28 16:17 UTC.
Position N 30°35' W 053°20'.

Barometer 1025.6 mb

Date/timePositionNaut miles runAvg speedWind from/ knotsBaromVisibWave heightAir tempDewpointWater temp
2015-May-28 14:00N 30°35' W 053°20'1 0.1 1025.6
2015-May-28 05:00N 30°35' W 053°20'1 0.6 1024.3
2015-May-28 04:00N 30°36' W 053°20'1 0.3 1024.9
2015-May-28 00:00N 30°35' W 053°21'1 0.3 1025.4
2015-May-27 21:00N 30°36' W 053°21'0 0.2 1024.4
2015-May-27 18:00N 30°37' W 053°22'1 0.9 1024.5
2015-May-27 17:00N 30°37' W 053°23'1 0.1 1024.9
2015-May-27 08:00N 30°36' W 053°24'0 0.2 1022.7
2015-May-27 07:00N 30°36' W 053°24'1 0.3 1022.3
2015-May-27 05:00N 30°36' W 053°24'0 0.0 1022.6
2015-May-27 02:00N 30°36' W 053°24'1 0.2 1023.5
2015-May-26 21:00N 30°36' W 053°26'1 0.4 1021.5
2015-May-26 18:00N 30°37' W 053°26'1 0.3 1020.7
2015-May-26 14:00N 30°37' W 053°27'2 0.8 1020.9
2015-May-26 12:00N 30°37' W 053°29'1 0.2 1020.0
2015-May-26 08:00N 30°38' W 053°30'0 0.3 1019.2
2015-May-26 07:00N 30°38' W 053°30'4 0.3 1019.4
2015-May-25 19:00N 30°41' W 053°33'0 0.2 1021.4
2015-May-25 17:00N 30°42' W 053°33'3 0.4 1022.7
2015-May-25 10:00N 30°44' W 053°34'1 0.5 1022.9
2015-May-25 08:00N 30°45' W 053°33'1 0.6 1022.2
2015-May-25 07:00N 30°46' W 053°34'1 0.2 1022.4
2015-May-25 01:00N 30°46' W 053°35'2 0.3 1024.9
2015-May-24 20:00N 30°48' W 053°35'0 0.1 1023.6
2015-May-24 19:00N 30°48' W 053°35'3 0.5 1023.7
2015-May-24 12:00N 30°51' W 053°35'0 0.3 1025.1
2015-May-24 11:00N 30°51' W 053°35'4 0.3 1025.1
2015-May-23 21:00N 30°55' W 053°37'4 0.5 1025.9
2015-May-23 14:00N 30°59' W 053°37'3 0.4 1026.9
2015-May-23 08:00N 31°02' W 053°38'1 0.5 1025.5
2015-May-23 07:00N 31°02' W 053°38'0 0.2 1025.7
2015-May-23 06:00N 31°02' W 053°38'2 1.8 1025.8
2015-May-23 05:00N 31°04' W 053°38'1 0.1 1026.3
2015-May-23 01:00N 31°04' W 053°37'2 2.2 1027.2
2015-May-23 00:00N 31°06' W 053°38'3 0.6 1027.1
2015-May-22 19:00N 31°09' W 053°36'4 0.4 1025.6
2015-May-22 10:00N 31°13' W 053°37'0 0.5 1024.5
2015-May-22 09:00N 31°13' W 053°37'2 0.7 1023.6
2015-May-22 06:00N 31°15' W 053°36'0 0.0 1022.7
2015-May-22 05:00N 31°15' W 053°36'3 1.1 1022.7
2015-May-22 02:00N 31°19' W 053°36'2 0.8 1023.0
2015-May-22 00:00N 31°20' W 053°34'2 0.5 1022.1
2015-May-21 19:00N 31°22' W 053°33'2 0.8 1020.3
2015-May-21 16:00N 31°24' W 053°33'1 1.2 1019.9
2015-May-21 15:00N 31°25' W 053°32'0 0.2 1019.7
2015-May-21 14:00N 31°25' W 053°33'1 1.2 1019.4
2015-May-21 13:00N 31°26' W 053°32'1 1.0 1018.9
2015-May-21 12:00N 31°27' W 053°32'2 0.6 1018.4
2015-May-21 09:00N 31°29' W 053°31'9 0.9 1016.9
2015-May-20 23:00N 31°37' W 053°29'2 0.5 1013.7
2015-May-20 18:00N 31°39' W 053°27'1 1.0 1011.6
2015-May-20 17:00N 31°40' W 053°27'4 0.6 1011.5
2015-May-20 10:00N 31°44' W 053°27'2 1.9 1009.5
2015-May-20 09:00N 31°46' W 053°26'7 0.6 1009.2
2015-May-19 21:00N 31°53' W 053°25'2 1.8 1010.5
2015-May-19 20:00N 31°55' W 053°24'0 0.0 1011.4
2015-May-19 19:00N 31°55' W 053°24'1 0.9 1011.9
2015-May-19 18:00N 31°56' W 053°23'5 1.1 1012.4
2015-May-19 13:00N 32°01' W 053°22'2 1.7 1014.0
2015-May-19 12:00N 32°03' W 053°22'0 0.1 1014.3
2015-May-19 09:00N 32°03' W 053°21'2 0.7 1014.2
2015-May-19 06:00N 32°04' W 053°20'2 2.3 1014.6
2015-May-19 05:00N 32°05' W 053°18'2 2.3 1015.5
2015-May-19 04:00N 32°04' W 053°20'2 0.8 1016.0
2015-May-19 01:00N 32°05' W 053°17'0 0.5 1016.4
2015-May-19 00:00N 32°06' W 053°17'1 1.4 1016.4
2015-May-18 23:00N 32°07' W 053°16'0 0.2 1015.9
2015-May-18 21:00N 32°07' W 053°16'1 1.1 1015.7
2015-May-18 20:00N 32°08' W 053°15'0 0.0 1016.1
2015-May-18 19:00N 32°08' W 053°15'1 1.0 1016.4
2015-May-18 18:00N 32°09' W 053°15'1 1.4 1016.8
2015-May-18 17:00N 32°10' W 053°15'0 0.0 1017.0
2015-May-18 16:00N 32°10' W 053°15'3 1.4 1016.9
2015-May-18 14:00N 32°13' W 053°13'   1016.9
Track history (hours):
 
Tides and Currents Weather Stations Pressure Air Temp Water Temp Dewpoint Dewpoint Depression Visibility Wind Speed Wind Dir Waves Ship Positions

Drifting buoy 41936

Last reported at 2015-May-28 14:00 UTC. Time now 2015-May-28 16:17 UTC.
Position N 30°35' W 053°20'.

Barometer 1025.6 mb

Date/timePositionNaut miles runAvg speedWind from/ knotsBaromVisibWave heightAir tempDewpointWater temp
2015-May-28 14:00N 30°35' W 053°20'1 0.1 1025.6
2015-May-28 05:00N 30°35' W 053°20'1 0.6 1024.3
2015-May-28 04:00N 30°36' W 053°20'1 0.3 1024.9
2015-May-28 00:00N 30°35' W 053°21'1 0.3 1025.4
2015-May-27 21:00N 30°36' W 053°21'0 0.2 1024.4
2015-May-27 18:00N 30°37' W 053°22'1 0.9 1024.5
2015-May-27 17:00N 30°37' W 053°23'1 0.1 1024.9
2015-May-27 08:00N 30°36' W 053°24'0 0.2 1022.7
2015-May-27 07:00N 30°36' W 053°24'1 0.3 1022.3
2015-May-27 05:00N 30°36' W 053°24'0 0.0 1022.6
2015-May-27 02:00N 30°36' W 053°24'1 0.2 1023.5
2015-May-26 21:00N 30°36' W 053°26'1 0.4 1021.5
2015-May-26 18:00N 30°37' W 053°26'1 0.3 1020.7
2015-May-26 14:00N 30°37' W 053°27'2 0.8 1020.9
2015-May-26 12:00N 30°37' W 053°29'1 0.2 1020.0
2015-May-26 08:00N 30°38' W 053°30'0 0.3 1019.2
2015-May-26 07:00N 30°38' W 053°30'4 0.3 1019.4
2015-May-25 19:00N 30°41' W 053°33'0 0.2 1021.4
2015-May-25 17:00N 30°42' W 053°33'3 0.4 1022.7
2015-May-25 10:00N 30°44' W 053°34'1 0.5 1022.9
2015-May-25 08:00N 30°45' W 053°33'1 0.6 1022.2
2015-May-25 07:00N 30°46' W 053°34'1 0.2 1022.4
2015-May-25 01:00N 30°46' W 053°35'2 0.3 1024.9
2015-May-24 20:00N 30°48' W 053°35'0 0.1 1023.6
2015-May-24 19:00N 30°48' W 053°35'3 0.5 1023.7
2015-May-24 12:00N 30°51' W 053°35'0 0.3 1025.1
2015-May-24 11:00N 30°51' W 053°35'4 0.3 1025.1
2015-May-23 21:00N 30°55' W 053°37'4 0.5 1025.9
2015-May-23 14:00N 30°59' W 053°37'3 0.4 1026.9
2015-May-23 08:00N 31°02' W 053°38'1 0.5 1025.5
2015-May-23 07:00N 31°02' W 053°38'0 0.2 1025.7
2015-May-23 06:00N 31°02' W 053°38'2 1.8 1025.8
2015-May-23 05:00N 31°04' W 053°38'1 0.1 1026.3
2015-May-23 01:00N 31°04' W 053°37'2 2.2 1027.2
2015-May-23 00:00N 31°06' W 053°38'3 0.6 1027.1
2015-May-22 19:00N 31°09' W 053°36'4 0.4 1025.6
2015-May-22 10:00N 31°13' W 053°37'0 0.5 1024.5
2015-May-22 09:00N 31°13' W 053°37'2 0.7 1023.6
2015-May-22 06:00N 31°15' W 053°36'0 0.0 1022.7
2015-May-22 05:00N 31°15' W 053°36'3 1.1 1022.7
2015-May-22 02:00N 31°19' W 053°36'2 0.8 1023.0
2015-May-22 00:00N 31°20' W 053°34'2 0.5 1022.1
2015-May-21 19:00N 31°22' W 053°33'2 0.8 1020.3
2015-May-21 16:00N 31°24' W 053°33'1 1.2 1019.9
2015-May-21 15:00N 31°25' W 053°32'0 0.2 1019.7
2015-May-21 14:00N 31°25' W 053°33'1 1.2 1019.4
2015-May-21 13:00N 31°26' W 053°32'1 1.0 1018.9
2015-May-21 12:00N 31°27' W 053°32'2 0.6 1018.4
2015-May-21 09:00N 31°29' W 053°31'9 0.9 1016.9
2015-May-20 23:00N 31°37' W 053°29'2 0.5 1013.7
2015-May-20 18:00N 31°39' W 053°27'1 1.0 1011.6
2015-May-20 17:00N 31°40' W 053°27'4 0.6 1011.5
2015-May-20 10:00N 31°44' W 053°27'2 1.9 1009.5
2015-May-20 09:00N 31°46' W 053°26'7 0.6 1009.2
2015-May-19 21:00N 31°53' W 053°25'2 1.8 1010.5
2015-May-19 20:00N 31°55' W 053°24'0 0.0 1011.4
2015-May-19 19:00N 31°55' W 053°24'1 0.9 1011.9
2015-May-19 18:00N 31°56' W 053°23'5 1.1 1012.4
2015-May-19 13:00N 32°01' W 053°22'2 1.7 1014.0
2015-May-19 12:00N 32°03' W 053°22'0 0.1 1014.3
2015-May-19 09:00N 32°03' W 053°21'2 0.7 1014.2
2015-May-19 06:00N 32°04' W 053°20'2 2.3 1014.6
2015-May-19 05:00N 32°05' W 053°18'2 2.3 1015.5
2015-May-19 04:00N 32°04' W 053°20'2 0.8 1016.0
2015-May-19 01:00N 32°05' W 053°17'0 0.5 1016.4
2015-May-19 00:00N 32°06' W 053°17'1 1.4 1016.4
2015-May-18 23:00N 32°07' W 053°16'0 0.2 1015.9
2015-May-18 21:00N 32°07' W 053°16'1 1.1 1015.7
2015-May-18 20:00N 32°08' W 053°15'0 0.0 1016.1
2015-May-18 19:00N 32°08' W 053°15'1 1.0 1016.4
2015-May-18 18:00N 32°09' W 053°15'1 1.4 1016.8
2015-May-18 17:00N 32°10' W 053°15'0 0.0 1017.0
2015-May-18 16:00N 32°10' W 053°15'3 1.4 1016.9
2015-May-18 14:00N 32°13' W 053°13'   1016.9

Dump ship's entire track history